sensor_id;sensor_type;location;lat;lon;timestamp;temperature;humidity
37204;DHT22;23098;48.054;10.636;2023-09-12T00:02:04;16.70;99.90
37204;DHT22;23098;48.054;10.636;2023-09-12T00:04:30;16.60;99.90
37204;DHT22;23098;48.054;10.636;2023-09-12T00:06:55;16.60;99.90
37204;DHT22;23098;48.054;10.636;2023-09-12T00:09:21;16.60;99.90
37204;DHT22;23098;48.054;10.636;2023-09-12T00:11:47;16.60;99.90
37204;DHT22;23098;48.054;10.636;2023-09-12T00:14:16;16.50;99.90
37204;DHT22;23098;48.054;10.636;2023-09-12T00:16:42;16.50;99.90
37204;DHT22;23098;48.054;10.636;2023-09-12T00:19:07;16.50;99.90
37204;DHT22;23098;48.054;10.636;2023-09-12T00:21:33;16.50;99.90
37204;DHT22;23098;48.054;10.636;2023-09-12T00:23:58;16.50;99.90
37204;DHT22;23098;48.054;10.636;2023-09-12T00:26:25;16.50;99.90
37204;DHT22;23098;48.054;10.636;2023-09-12T00:28:51;16.50;99.90
37204;DHT22;23098;48.054;10.636;2023-09-12T00:31:16;16.50;99.90
37204;DHT22;23098;48.054;10.636;2023-09-12T00:33:42;16.40;99.90
37204;DHT22;23098;48.054;10.636;2023-09-12T00:36:07;16.40;99.90
37204;DHT22;23098;48.054;10.636;2023-09-12T00:38:33;16.30;99.90
37204;DHT22;23098;48.054;10.636;2023-09-12T00:40:58;16.30;99.90
37204;DHT22;23098;48.054;10.636;2023-09-12T00:43:24;16.20;99.90
37204;DHT22;23098;48.054;10.636;2023-09-12T00:45:49;16.10;99.90
37204;DHT22;23098;48.054;10.636;2023-09-12T00:48:17;16.10;99.90
37204;DHT22;23098;48.054;10.636;2023-09-12T00:50:45;16.00;99.90
37204;DHT22;23098;48.054;10.636;2023-09-12T00:53:11;16.10;99.90
37204;DHT22;23098;48.054;10.636;2023-09-12T00:55:40;16.10;99.90
37204;DHT22;23098;48.054;10.636;2023-09-12T00:58:08;16.10;99.90
37204;DHT22;23098;48.054;10.636;2023-09-12T01:00:34;16.10;99.90
37204;DHT22;23098;48.054;10.636;2023-09-12T01:02:59;16.10;99.90
37204;DHT22;23098;48.054;10.636;2023-09-12T01:05:25;16.10;99.90
37204;DHT22;23098;48.054;10.636;2023-09-12T01:07:52;16.10;99.90
37204;DHT22;23098;48.054;10.636;2023-09-12T01:10:18;16.00;99.90
37204;DHT22;23098;48.054;10.636;2023-09-12T01:12:44;16.10;99.90
37204;DHT22;23098;48.054;10.636;2023-09-12T01:15:10;16.10;99.90
37204;DHT22;23098;48.054;10.636;2023-09-12T01:17:43;16.10;99.90
37204;DHT22;23098;48.054;10.636;2023-09-12T01:20:14;16.00;99.90
37204;DHT22;23098;48.054;10.636;2023-09-12T01:22:55;16.00;99.90
37204;DHT22;23098;48.054;10.636;2023-09-12T01:28:35;15.90;99.90
37204;DHT22;23098;48.054;10.636;2023-09-12T01:31:05;15.80;99.90
37204;DHT22;23098;48.054;10.636;2023-09-12T01:33:30;15.80;99.90
37204;DHT22;23098;48.054;10.636;2023-09-12T01:35:56;15.80;99.90
37204;DHT22;23098;48.054;10.636;2023-09-12T01:38:22;15.70;99.90
37204;DHT22;23098;48.054;10.636;2023-09-12T01:40:53;15.70;99.90
37204;DHT22;23098;48.054;10.636;2023-09-12T01:43:21;15.70;99.90
37204;DHT22;23098;48.054;10.636;2023-09-12T01:45:54;15.70;99.90
37204;DHT22;23098;48.054;10.636;2023-09-12T01:48:23;15.70;99.90
37204;DHT22;23098;48.054;10.636;2023-09-12T01:50:50;15.70;99.90
37204;DHT22;23098;48.054;10.636;2023-09-12T01:53:16;15.70;99.90
37204;DHT22;23098;48.054;10.636;2023-09-12T01:55:43;15.70;99.90
37204;DHT22;23098;48.054;10.636;2023-09-12T01:58:11;15.80;99.90
37204;DHT22;23098;48.054;10.636;2023-09-12T02:00:38;15.70;99.90
37204;DHT22;23098;48.054;10.636;2023-09-12T02:03:03;15.60;99.90
37204;DHT22;23098;48.054;10.636;2023-09-12T02:05:29;15.50;99.90
37204;DHT22;23098;48.054;10.636;2023-09-12T02:07:55;15.50;99.90
37204;DHT22;23098;48.054;10.636;2023-09-12T02:10:21;15.50;99.90
37204;DHT22;23098;48.054;10.636;2023-09-12T02:12:47;15.50;99.90
37204;DHT22;23098;48.054;10.636;2023-09-12T02:15:13;15.60;99.90
37204;DHT22;23098;48.054;10.636;2023-09-12T02:17:39;15.60;99.90
37204;DHT22;23098;48.054;10.636;2023-09-12T02:20:07;15.60;99.90
37204;DHT22;23098;48.054;10.636;2023-09-12T02:22:32;15.50;99.90
37204;DHT22;23098;48.054;10.636;2023-09-12T02:24:58;15.40;99.90
37204;DHT22;23098;48.054;10.636;2023-09-12T02:27:23;15.40;99.90
37204;DHT22;23098;48.054;10.636;2023-09-12T02:29:49;15.50;99.90
37204;DHT22;23098;48.054;10.636;2023-09-12T02:32:14;15.50;99.90
37204;DHT22;23098;48.054;10.636;2023-09-12T02:34:40;15.60;99.90
37204;DHT22;23098;48.054;10.636;2023-09-12T02:37:06;15.60;99.90
37204;DHT22;23098;48.054;10.636;2023-09-12T02:39:31;15.50;99.90
37204;DHT22;23098;48.054;10.636;2023-09-12T02:41:57;15.40;99.90
37204;DHT22;23098;48.054;10.636;2023-09-12T02:44:22;15.20;99.90
37204;DHT22;23098;48.054;10.636;2023-09-12T02:46:48;15.30;99.90
37204;DHT22;23098;48.054;10.636;2023-09-12T02:49:14;15.30;99.90
37204;DHT22;23098;48.054;10.636;2023-09-12T02:51:39;15.20;99.90
37204;DHT22;23098;48.054;10.636;2023-09-12T02:54:05;15.20;99.90
37204;DHT22;23098;48.054;10.636;2023-09-12T02:56:31;15.10;99.90
37204;DHT22;23098;48.054;10.636;2023-09-12T02:58:56;15.20;99.90
37204;DHT22;23098;48.054;10.636;2023-09-12T03:01:22;15.10;99.90
37204;DHT22;23098;48.054;10.636;2023-09-12T03:03:50;15.10;99.90
37204;DHT22;23098;48.054;10.636;2023-09-12T03:06:16;15.00;99.90
37204;DHT22;23098;48.054;10.636;2023-09-12T03:08:43;15.10;99.90
37204;DHT22;23098;48.054;10.636;2023-09-12T03:11:10;15.10;99.90
37204;DHT22;23098;48.054;10.636;2023-09-12T03:13:37;15.20;99.90
37204;DHT22;23098;48.054;10.636;2023-09-12T03:16:03;15.20;99.90
37204;DHT22;23098;48.054;10.636;2023-09-12T03:18:29;15.20;99.90
37204;DHT22;23098;48.054;10.636;2023-09-12T03:20:55;15.10;99.90
37204;DHT22;23098;48.054;10.636;2023-09-12T03:23:20;15.00;99.90
37204;DHT22;23098;48.054;10.636;2023-09-12T03:25:46;14.80;99.90
37204;DHT22;23098;48.054;10.636;2023-09-12T03:28:12;14.70;99.90
37204;DHT22;23098;48.054;10.636;2023-09-12T03:30:38;14.60;99.90
37204;DHT22;23098;48.054;10.636;2023-09-12T03:33:05;14.60;99.90
37204;DHT22;23098;48.054;10.636;2023-09-12T03:35:33;14.70;99.90
37204;DHT22;23098;48.054;10.636;2023-09-12T03:38:00;14.80;99.90
37204;DHT22;23098;48.054;10.636;2023-09-12T03:40:28;14.90;99.90
37204;DHT22;23098;48.054;10.636;2023-09-12T03:42:55;14.90;99.90
37204;DHT22;23098;48.054;10.636;2023-09-12T03:45:21;14.90;99.90
37204;DHT22;23098;48.054;10.636;2023-09-12T03:47:47;14.90;99.90
37204;DHT22;23098;48.054;10.636;2023-09-12T03:50:13;14.90;99.90
37204;DHT22;23098;48.054;10.636;2023-09-12T03:52:39;14.90;99.90
37204;DHT22;23098;48.054;10.636;2023-09-12T03:55:06;14.90;99.90
37204;DHT22;23098;48.054;10.636;2023-09-12T03:57:32;14.90;99.90
37204;DHT22;23098;48.054;10.636;2023-09-12T03:59:57;14.90;99.90
37204;DHT22;23098;48.054;10.636;2023-09-12T04:02:23;14.90;99.90
37204;DHT22;23098;48.054;10.636;2023-09-12T04:04:49;14.80;99.90
37204;DHT22;23098;48.054;10.636;2023-09-12T04:07:14;14.70;99.90
37204;DHT22;23098;48.054;10.636;2023-09-12T04:09:41;14.70;99.90
37204;DHT22;23098;48.054;10.636;2023-09-12T04:12:07;14.60;99.90
37204;DHT22;23098;48.054;10.636;2023-09-12T04:14:34;14.60;99.90
37204;DHT22;23098;48.054;10.636;2023-09-12T04:17:00;14.50;99.90
37204;DHT22;23098;48.054;10.636;2023-09-12T04:19:25;14.50;99.90
37204;DHT22;23098;48.054;10.636;2023-09-12T04:21:51;14.60;99.90
37204;DHT22;23098;48.054;10.636;2023-09-12T04:24:16;14.70;99.90
37204;DHT22;23098;48.054;10.636;2023-09-12T04:26:43;14.80;99.90
37204;DHT22;23098;48.054;10.636;2023-09-12T04:29:09;14.80;99.90
37204;DHT22;23098;48.054;10.636;2023-09-12T04:31:35;14.80;99.90
37204;DHT22;23098;48.054;10.636;2023-09-12T04:34:00;14.80;99.90
37204;DHT22;23098;48.054;10.636;2023-09-12T04:36:26;14.70;99.90
37204;DHT22;23098;48.054;10.636;2023-09-12T04:38:51;14.60;99.90
37204;DHT22;23098;48.054;10.636;2023-09-12T04:41:17;14.60;99.90
37204;DHT22;23098;48.054;10.636;2023-09-12T04:43:43;14.50;99.90
37204;DHT22;23098;48.054;10.636;2023-09-12T04:46:12;14.40;99.90
37204;DHT22;23098;48.054;10.636;2023-09-12T04:48:38;14.40;99.90
37204;DHT22;23098;48.054;10.636;2023-09-12T04:51:04;14.40;99.90
37204;DHT22;23098;48.054;10.636;2023-09-12T04:53:30;14.30;99.90
37204;DHT22;23098;48.054;10.636;2023-09-12T04:56:03;14.40;99.90
37204;DHT22;23098;48.054;10.636;2023-09-12T04:58:29;14.40;99.90
37204;DHT22;23098;48.054;10.636;2023-09-12T05:00:55;14.50;99.90
37204;DHT22;23098;48.054;10.636;2023-09-12T05:03:21;14.50;99.90
37204;DHT22;23098;48.054;10.636;2023-09-12T05:05:48;14.50;99.90
37204;DHT22;23098;48.054;10.636;2023-09-12T05:08:13;14.50;99.90
37204;DHT22;23098;48.054;10.636;2023-09-12T05:10:39;14.50;99.90
37204;DHT22;23098;48.054;10.636;2023-09-12T05:13:05;14.60;99.90
37204;DHT22;23098;48.054;10.636;2023-09-12T05:15:31;14.60;99.90
37204;DHT22;23098;48.054;10.636;2023-09-12T05:17:56;14.80;99.90
37204;DHT22;23098;48.054;10.636;2023-09-12T05:20:22;14.90;99.90
37204;DHT22;23098;48.054;10.636;2023-09-12T05:22:47;15.10;99.90
37204;DHT22;23098;48.054;10.636;2023-09-12T05:25:13;15.30;99.90
37204;DHT22;23098;48.054;10.636;2023-09-12T05:27:38;15.90;99.90
37204;DHT22;23098;48.054;10.636;2023-09-12T05:30:05;16.10;99.90
37204;DHT22;23098;48.054;10.636;2023-09-12T05:32:30;15.90;99.90
37204;DHT22;23098;48.054;10.636;2023-09-12T05:34:56;16.00;99.90
37204;DHT22;23098;48.054;10.636;2023-09-12T05:37:22;16.30;99.90
37204;DHT22;23098;48.054;10.636;2023-09-12T05:39:47;16.90;99.90
37204;DHT22;23098;48.054;10.636;2023-09-12T05:42:13;17.00;99.90
37204;DHT22;23098;48.054;10.636;2023-09-12T05:44:40;17.00;99.90
37204;DHT22;23098;48.054;10.636;2023-09-12T05:47:07;17.10;99.90
37204;DHT22;23098;48.054;10.636;2023-09-12T05:49:33;17.40;99.90
37204;DHT22;23098;48.054;10.636;2023-09-12T05:51:59;17.40;99.90
37204;DHT22;23098;48.054;10.636;2023-09-12T05:54:25;17.40;99.90
37204;DHT22;23098;48.054;10.636;2023-09-12T05:56:51;17.90;99.90
37204;DHT22;23098;48.054;10.636;2023-09-12T05:59:18;18.10;99.90
37204;DHT22;23098;48.054;10.636;2023-09-12T06:01:44;18.50;99.90
37204;DHT22;23098;48.054;10.636;2023-09-12T06:04:10;18.50;99.90
37204;DHT22;23098;48.054;10.636;2023-09-12T06:06:36;18.30;99.90
37204;DHT22;23098;48.054;10.636;2023-09-12T06:09:01;18.40;99.90
37204;DHT22;23098;48.054;10.636;2023-09-12T06:11:27;18.30;99.90
37204;DHT22;23098;48.054;10.636;2023-09-12T06:13:53;17.90;99.90
37204;DHT22;23098;48.054;10.636;2023-09-12T06:16:18;17.50;99.90
37204;DHT22;23098;48.054;10.636;2023-09-12T06:18:44;17.30;99.90
37204;DHT22;23098;48.054;10.636;2023-09-12T06:21:10;17.30;99.90
37204;DHT22;23098;48.054;10.636;2023-09-12T06:23:36;17.20;99.90
37204;DHT22;23098;48.054;10.636;2023-09-12T06:26:01;17.30;99.90
37204;DHT22;23098;48.054;10.636;2023-09-12T06:28:28;17.50;99.90
37204;DHT22;23098;48.054;10.636;2023-09-12T06:30:55;17.50;99.90
37204;DHT22;23098;48.054;10.636;2023-09-12T06:33:22;17.50;99.90
37204;DHT22;23098;48.054;10.636;2023-09-12T06:35:51;17.60;99.90
37204;DHT22;23098;48.054;10.636;2023-09-12T06:38:18;17.70;99.90
37204;DHT22;23098;48.054;10.636;2023-09-12T06:40:44;17.90;99.90
37204;DHT22;23098;48.054;10.636;2023-09-12T06:43:10;18.00;99.90
37204;DHT22;23098;48.054;10.636;2023-09-12T06:45:36;18.10;99.90
37204;DHT22;23098;48.054;10.636;2023-09-12T06:48:03;18.20;99.90
37204;DHT22;23098;48.054;10.636;2023-09-12T06:50:29;18.30;99.90
37204;DHT22;23098;48.054;10.636;2023-09-12T06:52:54;18.40;99.90
37204;DHT22;23098;48.054;10.636;2023-09-12T06:55:20;18.60;99.90
37204;DHT22;23098;48.054;10.636;2023-09-12T06:57:45;18.70;99.90
37204;DHT22;23098;48.054;10.636;2023-09-12T07:00:12;18.80;99.90
37204;DHT22;23098;48.054;10.636;2023-09-12T07:02:38;19.00;99.90
37204;DHT22;23098;48.054;10.636;2023-09-12T07:05:04;19.20;99.90
37204;DHT22;23098;48.054;10.636;2023-09-12T07:07:30;19.40;99.90
37204;DHT22;23098;48.054;10.636;2023-09-12T07:09:56;19.60;99.90
37204;DHT22;23098;48.054;10.636;2023-09-12T07:12:22;19.80;99.90
37204;DHT22;23098;48.054;10.636;2023-09-12T07:14:47;19.90;99.90
37204;DHT22;23098;48.054;10.636;2023-09-12T07:17:13;20.00;99.90
37204;DHT22;23098;48.054;10.636;2023-09-12T07:19:39;20.10;99.90
37204;DHT22;23098;48.054;10.636;2023-09-12T07:22:04;20.20;99.90
37204;DHT22;23098;48.054;10.636;2023-09-12T07:24:30;20.40;99.80
37204;DHT22;23098;48.054;10.636;2023-09-12T07:26:56;20.60;99.60
37204;DHT22;23098;48.054;10.636;2023-09-12T07:29:23;20.70;99.10
37204;DHT22;23098;48.054;10.636;2023-09-12T07:31:52;20.80;99.50
37204;DHT22;23098;48.054;10.636;2023-09-12T07:34:17;21.00;99.40
37204;DHT22;23098;48.054;10.636;2023-09-12T07:36:43;21.10;99.60
37204;DHT22;23098;48.054;10.636;2023-09-12T07:39:08;21.20;99.20
37204;DHT22;23098;48.054;10.636;2023-09-12T07:41:34;21.40;99.40
37204;DHT22;23098;48.054;10.636;2023-09-12T07:44:00;21.50;98.80
37204;DHT22;23098;48.054;10.636;2023-09-12T07:46:27;21.70;99.50
37204;DHT22;23098;48.054;10.636;2023-09-12T07:48:52;21.90;98.70
37204;DHT22;23098;48.054;10.636;2023-09-12T07:51:18;22.00;98.00
37204;DHT22;23098;48.054;10.636;2023-09-12T07:53:43;22.20;98.30
37204;DHT22;23098;48.054;10.636;2023-09-12T07:56:09;22.40;96.90
37204;DHT22;23098;48.054;10.636;2023-09-12T07:58:36;22.40;96.80
37204;DHT22;23098;48.054;10.636;2023-09-12T08:01:08;22.40;96.90
37204;DHT22;23098;48.054;10.636;2023-09-12T08:03:35;22.60;97.30
37204;DHT22;23098;48.054;10.636;2023-09-12T08:06:02;22.70;97.40
37204;DHT22;23098;48.054;10.636;2023-09-12T08:08:28;22.90;96.50
37204;DHT22;23098;48.054;10.636;2023-09-12T08:10:54;23.20;97.50
37204;DHT22;23098;48.054;10.636;2023-09-12T08:13:19;23.30;96.80
37204;DHT22;23098;48.054;10.636;2023-09-12T08:15:45;23.50;96.50
37204;DHT22;23098;48.054;10.636;2023-09-12T08:18:10;23.60;96.50
37204;DHT22;23098;48.054;10.636;2023-09-12T08:20:36;23.80;96.90
37204;DHT22;23098;48.054;10.636;2023-09-12T08:23:04;23.90;96.20
37204;DHT22;23098;48.054;10.636;2023-09-12T08:25:29;24.20;95.10
37204;DHT22;23098;48.054;10.636;2023-09-12T08:27:55;24.30;94.10
37204;DHT22;23098;48.054;10.636;2023-09-12T08:30:21;24.50;94.80
37204;DHT22;23098;48.054;10.636;2023-09-12T08:32:47;24.70;94.50
37204;DHT22;23098;48.054;10.636;2023-09-12T08:35:13;24.80;93.50
37204;DHT22;23098;48.054;10.636;2023-09-12T08:37:40;25.00;93.50
37204;DHT22;23098;48.054;10.636;2023-09-12T08:40:09;25.20;93.80
37204;DHT22;23098;48.054;10.636;2023-09-12T08:42:40;25.20;93.10
37204;DHT22;23098;48.054;10.636;2023-09-12T08:45:12;25.20;93.20
37204;DHT22;23098;48.054;10.636;2023-09-12T08:47:41;25.30;93.50
37204;DHT22;23098;48.054;10.636;2023-09-12T08:50:11;25.50;92.90
37204;DHT22;23098;48.054;10.636;2023-09-12T08:52:37;25.70;92.60
37204;DHT22;23098;48.054;10.636;2023-09-12T08:55:03;25.70;93.20
37204;DHT22;23098;48.054;10.636;2023-09-12T08:57:30;25.90;91.50
37204;DHT22;23098;48.054;10.636;2023-09-12T09:00:00;26.10;91.00
37204;DHT22;23098;48.054;10.636;2023-09-12T09:02:30;26.30;91.00
37204;DHT22;23098;48.054;10.636;2023-09-12T09:04:55;26.30;91.20
37204;DHT22;23098;48.054;10.636;2023-09-12T09:07:21;26.50;91.00
37204;DHT22;23098;48.054;10.636;2023-09-12T09:09:48;26.50;88.90
37204;DHT22;23098;48.054;10.636;2023-09-12T09:12:16;26.50;89.30
37204;DHT22;23098;48.054;10.636;2023-09-12T09:14:42;26.60;89.00
37204;DHT22;23098;48.054;10.636;2023-09-12T09:17:08;26.60;90.00
37204;DHT22;23098;48.054;10.636;2023-09-12T09:19:43;26.50;89.30
37204;DHT22;23098;48.054;10.636;2023-09-12T09:22:10;26.50;88.20
37204;DHT22;23098;48.054;10.636;2023-09-12T09:24:36;26.60;89.00
37204;DHT22;23098;48.054;10.636;2023-09-12T09:27:01;26.70;89.70
37204;DHT22;23098;48.054;10.636;2023-09-12T09:29:28;26.80;89.80
37204;DHT22;23098;48.054;10.636;2023-09-12T09:32:00;26.90;87.30
37204;DHT22;23098;48.054;10.636;2023-09-12T09:34:30;26.80;87.60
37204;DHT22;23098;48.054;10.636;2023-09-12T09:36:57;26.80;88.20
37204;DHT22;23098;48.054;10.636;2023-09-12T09:39:28;26.80;87.70
37204;DHT22;23098;48.054;10.636;2023-09-12T09:41:57;27.20;88.40
37204;DHT22;23098;48.054;10.636;2023-09-12T09:44:25;27.30;86.90
37204;DHT22;23098;48.054;10.636;2023-09-12T09:46:55;27.50;87.50
37204;DHT22;23098;48.054;10.636;2023-09-12T09:49:21;27.60;87.60
37204;DHT22;23098;48.054;10.636;2023-09-12T09:51:47;27.70;86.00
37204;DHT22;23098;48.054;10.636;2023-09-12T09:54:14;28.00;85.10
37204;DHT22;23098;48.054;10.636;2023-09-12T09:56:47;28.00;84.70
37204;DHT22;23098;48.054;10.636;2023-09-12T09:59:15;28.00;85.20
37204;DHT22;23098;48.054;10.636;2023-09-12T10:01:41;28.00;83.50
37204;DHT22;23098;48.054;10.636;2023-09-12T10:04:08;28.00;84.40
37204;DHT22;23098;48.054;10.636;2023-09-12T10:06:36;28.10;86.10
37204;DHT22;23098;48.054;10.636;2023-09-12T10:09:06;28.10;84.80
37204;DHT22;23098;48.054;10.636;2023-09-12T10:11:33;28.30;83.80
37204;DHT22;23098;48.054;10.636;2023-09-12T10:14:02;28.40;82.70
37204;DHT22;23098;48.054;10.636;2023-09-12T10:16:39;28.30;84.60
37204;DHT22;23098;48.054;10.636;2023-09-12T10:20:14;28.30;84.30
37204;DHT22;23098;48.054;10.636;2023-09-12T10:25:13;28.50;83.10
37204;DHT22;23098;48.054;10.636;2023-09-12T10:27:39;28.60;83.00
37204;DHT22;23098;48.054;10.636;2023-09-12T10:30:06;28.50;82.00
37204;DHT22;23098;48.054;10.636;2023-09-12T10:32:32;28.70;81.90
37204;DHT22;23098;48.054;10.636;2023-09-12T10:34:59;28.90;82.20
37204;DHT22;23098;48.054;10.636;2023-09-12T10:37:26;29.10;81.20
37204;DHT22;23098;48.054;10.636;2023-09-12T10:39:56;29.30;80.30
37204;DHT22;23098;48.054;10.636;2023-09-12T10:42:24;29.40;81.40
37204;DHT22;23098;48.054;10.636;2023-09-12T10:44:51;29.40;80.70
37204;DHT22;23098;48.054;10.636;2023-09-12T10:47:17;29.20;80.90
37204;DHT22;23098;48.054;10.636;2023-09-12T10:49:44;29.20;78.50
37204;DHT22;23098;48.054;10.636;2023-09-12T10:52:09;29.50;76.30
37204;DHT22;23098;48.054;10.636;2023-09-12T10:54:37;29.50;75.10
37204;DHT22;23098;48.054;10.636;2023-09-12T10:57:08;29.70;76.90
37204;DHT22;23098;48.054;10.636;2023-09-12T10:59:34;29.80;76.70
37204;DHT22;23098;48.054;10.636;2023-09-12T11:04:54;30.00;77.80
37204;DHT22;23098;48.054;10.636;2023-09-12T11:07:50;30.30;76.40
37204;DHT22;23098;48.054;10.636;2023-09-12T11:10:17;30.20;76.50
37204;DHT22;23098;48.054;10.636;2023-09-12T11:12:51;30.50;75.40
37204;DHT22;23098;48.054;10.636;2023-09-12T11:15:19;30.70;75.30
37204;DHT22;23098;48.054;10.636;2023-09-12T11:17:47;30.70;74.70
37204;DHT22;23098;48.054;10.636;2023-09-12T11:20:14;31.00;75.10
37204;DHT22;23098;48.054;10.636;2023-09-12T11:22:41;30.50;74.50
37204;DHT22;23098;48.054;10.636;2023-09-12T11:25:24;30.50;72.40
37204;DHT22;23098;48.054;10.636;2023-09-12T11:30:20;30.90;71.30
37204;DHT22;23098;48.054;10.636;2023-09-12T11:32:47;31.10;70.60
37204;DHT22;23098;48.054;10.636;2023-09-12T11:35:14;30.80;70.90
37204;DHT22;23098;48.054;10.636;2023-09-12T11:37:47;30.80;72.40
37204;DHT22;23098;48.054;10.636;2023-09-12T11:42:42;30.70;72.40
37204;DHT22;23098;48.054;10.636;2023-09-12T11:45:11;30.60;72.70
37204;DHT22;23098;48.054;10.636;2023-09-12T11:47:44;30.60;73.50
37204;DHT22;23098;48.054;10.636;2023-09-12T11:50:35;30.70;72.70
37204;DHT22;23098;48.054;10.636;2023-09-12T11:53:10;30.50;74.80
37204;DHT22;23098;48.054;10.636;2023-09-12T11:55:43;30.70;74.40
37204;DHT22;23098;48.054;10.636;2023-09-12T11:58:15;30.50;73.30
37204;DHT22;23098;48.054;10.636;2023-09-12T12:00:51;31.10;75.80
37204;DHT22;23098;48.054;10.636;2023-09-12T12:03:33;31.20;71.90
37204;DHT22;23098;48.054;10.636;2023-09-12T12:05:59;31.10;71.70
37204;DHT22;23098;48.054;10.636;2023-09-12T12:08:25;31.10;75.00
37204;DHT22;23098;48.054;10.636;2023-09-12T12:10:51;31.10;71.30
37204;DHT22;23098;48.054;10.636;2023-09-12T12:13:19;31.10;71.20
37204;DHT22;23098;48.054;10.636;2023-09-12T12:15:45;31.30;71.50
37204;DHT22;23098;48.054;10.636;2023-09-12T12:18:11;31.00;71.30
37204;DHT22;23098;48.054;10.636;2023-09-12T12:20:37;31.20;73.10
37204;DHT22;23098;48.054;10.636;2023-09-12T12:23:03;31.40;71.00
37204;DHT22;23098;48.054;10.636;2023-09-12T12:25:33;31.70;70.50
37204;DHT22;23098;48.054;10.636;2023-09-12T12:28:03;31.80;69.30
37204;DHT22;23098;48.054;10.636;2023-09-12T12:30:33;31.60;68.80
37204;DHT22;23098;48.054;10.636;2023-09-12T12:33:01;31.60;71.10
37204;DHT22;23098;48.054;10.636;2023-09-12T12:35:28;31.70;69.00
37204;DHT22;23098;48.054;10.636;2023-09-12T12:37:55;31.70;68.00
37204;DHT22;23098;48.054;10.636;2023-09-12T12:40:24;31.80;71.10
37204;DHT22;23098;48.054;10.636;2023-09-12T12:42:50;32.10;70.10
37204;DHT22;23098;48.054;10.636;2023-09-12T12:45:20;32.30;70.90
37204;DHT22;23098;48.054;10.636;2023-09-12T12:47:46;32.30;70.40
37204;DHT22;23098;48.054;10.636;2023-09-12T12:50:12;32.30;67.80
37204;DHT22;23098;48.054;10.636;2023-09-12T12:52:39;32.20;67.90
37204;DHT22;23098;48.054;10.636;2023-09-12T12:55:10;32.20;68.20
37204;DHT22;23098;48.054;10.636;2023-09-12T12:57:37;32.10;68.50
37204;DHT22;23098;48.054;10.636;2023-09-12T13:00:08;32.30;66.80
37204;DHT22;23098;48.054;10.636;2023-09-12T13:02:39;32.50;67.80
37204;DHT22;23098;48.054;10.636;2023-09-12T13:05:48;32.30;67.10
37204;DHT22;23098;48.054;10.636;2023-09-12T13:07:56;32.20;68.00
37204;DHT22;23098;48.054;10.636;2023-09-12T13:10:22;32.20;68.90
37204;DHT22;23098;48.054;10.636;2023-09-12T13:12:49;32.00;68.00
37204;DHT22;23098;48.054;10.636;2023-09-12T13:15:15;31.60;68.20
37204;DHT22;23098;48.054;10.636;2023-09-12T13:17:41;31.60;69.70
37204;DHT22;23098;48.054;10.636;2023-09-12T13:20:08;31.80;69.70
37204;DHT22;23098;48.054;10.636;2023-09-12T13:22:36;31.90;66.80
37204;DHT22;23098;48.054;10.636;2023-09-12T13:25:02;32.00;68.00
37204;DHT22;23098;48.054;10.636;2023-09-12T13:27:28;31.70;67.30
37204;DHT22;23098;48.054;10.636;2023-09-12T13:29:54;31.30;67.70
37204;DHT22;23098;48.054;10.636;2023-09-12T13:32:19;31.20;69.60
37204;DHT22;23098;48.054;10.636;2023-09-12T13:34:45;31.50;69.30
37204;DHT22;23098;48.054;10.636;2023-09-12T13:37:11;31.70;67.30
37204;DHT22;23098;48.054;10.636;2023-09-12T13:39:36;31.60;67.10
37204;DHT22;23098;48.054;10.636;2023-09-12T13:42:02;30.90;67.20
37204;DHT22;23098;48.054;10.636;2023-09-12T13:44:29;30.80;68.90
37204;DHT22;23098;48.054;10.636;2023-09-12T13:46:55;30.90;69.50
37204;DHT22;23098;48.054;10.636;2023-09-12T13:49:21;31.30;68.30
37204;DHT22;23098;48.054;10.636;2023-09-12T13:51:46;31.80;69.00
37204;DHT22;23098;48.054;10.636;2023-09-12T13:54:12;32.10;69.00
37204;DHT22;23098;48.054;10.636;2023-09-12T13:56:40;32.20;65.00
37204;DHT22;23098;48.054;10.636;2023-09-12T13:59:07;32.30;65.00
37204;DHT22;23098;48.054;10.636;2023-09-12T14:01:32;32.40;68.00
37204;DHT22;23098;48.054;10.636;2023-09-12T14:03:58;32.30;65.50
37204;DHT22;23098;48.054;10.636;2023-09-12T14:06:24;32.40;67.90
37204;DHT22;23098;48.054;10.636;2023-09-12T14:08:52;32.50;66.20
37204;DHT22;23098;48.054;10.636;2023-09-12T14:11:19;32.50;67.10
37204;DHT22;23098;48.054;10.636;2023-09-12T14:13:45;32.70;66.30
37204;DHT22;23098;48.054;10.636;2023-09-12T14:16:11;32.70;68.40
37204;DHT22;23098;48.054;10.636;2023-09-12T14:18:36;32.40;65.20
37204;DHT22;23098;48.054;10.636;2023-09-12T14:21:02;32.30;67.30
37204;DHT22;23098;48.054;10.636;2023-09-12T14:23:28;32.40;67.60
37204;DHT22;23098;48.054;10.636;2023-09-12T14:25:53;32.50;67.00
37204;DHT22;23098;48.054;10.636;2023-09-12T14:28:19;32.40;67.00
37204;DHT22;23098;48.054;10.636;2023-09-12T14:30:45;32.10;64.60
37204;DHT22;23098;48.054;10.636;2023-09-12T14:33:11;31.80;66.30
37204;DHT22;23098;48.054;10.636;2023-09-12T14:35:37;31.90;68.20
37204;DHT22;23098;48.054;10.636;2023-09-12T14:38:03;31.50;66.30
37204;DHT22;23098;48.054;10.636;2023-09-12T14:40:30;31.30;67.60
37204;DHT22;23098;48.054;10.636;2023-09-12T14:42:55;31.60;66.60
37204;DHT22;23098;48.054;10.636;2023-09-12T14:45:21;31.60;66.70
37204;DHT22;23098;48.054;10.636;2023-09-12T14:47:47;31.70;68.20
37204;DHT22;23098;48.054;10.636;2023-09-12T14:50:12;31.60;66.30
37204;DHT22;23098;48.054;10.636;2023-09-12T14:52:38;31.80;67.50
37204;DHT22;23098;48.054;10.636;2023-09-12T14:55:04;31.50;67.80
37204;DHT22;23098;48.054;10.636;2023-09-12T14:57:30;31.10;67.60
37204;DHT22;23098;48.054;10.636;2023-09-12T14:59:56;31.00;68.90
37204;DHT22;23098;48.054;10.636;2023-09-12T15:02:24;30.40;67.30
37204;DHT22;23098;48.054;10.636;2023-09-12T15:04:50;29.90;68.20
37204;DHT22;23098;48.054;10.636;2023-09-12T15:07:15;29.60;69.00
37204;DHT22;23098;48.054;10.636;2023-09-12T15:09:41;29.30;70.60
37204;DHT22;23098;48.054;10.636;2023-09-12T15:12:07;29.10;70.00
37204;DHT22;23098;48.054;10.636;2023-09-12T15:14:34;28.90;69.80
37204;DHT22;23098;48.054;10.636;2023-09-12T15:16:59;28.70;72.10
37204;DHT22;23098;48.054;10.636;2023-09-12T15:19:25;28.50;72.70
37204;DHT22;23098;48.054;10.636;2023-09-12T15:21:51;28.40;71.10
37204;DHT22;23098;48.054;10.636;2023-09-12T15:24:16;28.30;71.80
37204;DHT22;23098;48.054;10.636;2023-09-12T15:26:42;28.30;72.30
37204;DHT22;23098;48.054;10.636;2023-09-12T15:29:07;28.20;72.50